sensor_id;sensor_type;location;lat;lon;timestamp;pressure;altitude;pressure_sealevel;temperature;humidity
30744;BME280;17486;46.738;7.622;2023-05-25T00:01:21;95222.69;;;14.48;58.28
30744;BME280;17486;46.738;7.622;2023-05-25T00:03:48;95234.00;;;14.48;58.41
30744;BME280;17486;46.738;7.622;2023-05-25T00:06:16;95230.00;;;14.42;58.26
30744;BME280;17486;46.738;7.622;2023-05-25T00:08:42;95233.75;;;14.38;58.20
30744;BME280;17486;46.738;7.622;2023-05-25T00:11:08;95237.41;;;14.36;58.26
30744;BME280;17486;46.738;7.622;2023-05-25T00:13:33;95236.13;;;14.29;57.86
30744;BME280;17486;46.738;7.622;2023-05-25T00:15:58;95230.44;;;14.22;57.67
30744;BME280;17486;46.738;7.622;2023-05-25T00:18:24;95213.13;;;14.06;58.10
30744;BME280;17486;46.738;7.622;2023-05-25T00:20:50;95208.81;;;14.05;57.91
30744;BME280;17486;46.738;7.622;2023-05-25T00:23:18;95222.34;;;14.12;57.60
30744;BME280;17486;46.738;7.622;2023-05-25T00:25:44;95221.06;;;14.05;57.63
30744;BME280;17486;46.738;7.622;2023-05-25T00:28:10;95219.50;;;14.02;58.01
30744;BME280;17486;46.738;7.622;2023-05-25T00:30:36;95217.81;;;14.01;57.73
30744;BME280;17486;46.738;7.622;2023-05-25T00:33:01;95197.69;;;13.89;57.60
30744;BME280;17486;46.738;7.622;2023-05-25T00:35:27;95217.69;;;14.03;57.50
30744;BME280;17486;46.738;7.622;2023-05-25T00:37:53;95214.03;;;14.05;57.53
30744;BME280;17486;46.738;7.622;2023-05-25T00:40:18;95182.53;;;13.94;57.36
30744;BME280;17486;46.738;7.622;2023-05-25T00:42:44;95185.88;;;13.96;57.17
30744;BME280;17486;46.738;7.622;2023-05-25T00:45:10;95203.34;;;14.23;56.89
30744;BME280;17486;46.738;7.622;2023-05-25T00:47:36;95202.00;;;14.30;56.78
30744;BME280;17486;46.738;7.622;2023-05-25T00:50:02;95195.09;;;14.29;56.56
30744;BME280;17486;46.738;7.622;2023-05-25T00:52:29;95197.53;;;14.32;56.42
30744;BME280;17486;46.738;7.622;2023-05-25T00:54:57;95196.13;;;14.26;56.34
30744;BME280;17486;46.738;7.622;2023-05-25T00:57:27;95208.75;;;14.20;56.29
30744;BME280;17486;46.738;7.622;2023-05-25T00:59:56;95192.63;;;14.13;56.88
30744;BME280;17486;46.738;7.622;2023-05-25T01:02:23;95190.13;;;14.12;56.83
30744;BME280;17486;46.738;7.622;2023-05-25T01:04:52;95192.75;;;14.12;57.02
30744;BME280;17486;46.738;7.622;2023-05-25T01:07:22;95194.00;;;14.06;56.72
30744;BME280;17486;46.738;7.622;2023-05-25T01:09:49;95197.81;;;14.00;57.08
30744;BME280;17486;46.738;7.622;2023-05-25T01:12:18;95189.34;;;13.97;57.04
30744;BME280;17486;46.738;7.622;2023-05-25T01:14:46;95178.25;;;13.93;57.50
30744;BME280;17486;46.738;7.622;2023-05-25T01:17:13;95185.97;;;13.95;57.41
30744;BME280;17486;46.738;7.622;2023-05-25T01:19:40;95191.09;;;13.96;57.81
30744;BME280;17486;46.738;7.622;2023-05-25T01:22:23;95185.03;;;13.96;57.80
30744;BME280;17486;46.738;7.622;2023-05-25T01:24:53;95187.56;;;13.97;57.61
30744;BME280;17486;46.738;7.622;2023-05-25T01:27:24;95177.22;;;13.96;58.11
30744;BME280;17486;46.738;7.622;2023-05-25T01:29:52;95174.22;;;14.02;58.07
30744;BME280;17486;46.738;7.622;2023-05-25T01:32:19;95159.94;;;13.93;57.87
30744;BME280;17486;46.738;7.622;2023-05-25T01:34:45;95174.94;;;14.04;57.87
30744;BME280;17486;46.738;7.622;2023-05-25T01:37:12;95172.75;;;14.10;57.69
30744;BME280;17486;46.738;7.622;2023-05-25T01:39:39;95171.00;;;14.11;57.83
30744;BME280;17486;46.738;7.622;2023-05-25T01:42:05;95140.50;;;13.97;57.49
30744;BME280;17486;46.738;7.622;2023-05-25T01:44:31;95173.19;;;14.17;57.93
30744;BME280;17486;46.738;7.622;2023-05-25T01:47:31;95172.34;;;14.17;57.65
30744;BME280;17486;46.738;7.622;2023-05-25T01:50:10;95168.81;;;14.18;57.90
30744;BME280;17486;46.738;7.622;2023-05-25T01:52:52;95165.66;;;14.13;57.85
30744;BME280;17486;46.738;7.622;2023-05-25T01:55:21;95167.53;;;14.10;57.82
30744;BME280;17486;46.738;7.622;2023-05-25T01:57:49;95171.81;;;14.12;58.12
30744;BME280;17486;46.738;7.622;2023-05-25T02:00:17;95145.94;;;13.94;58.05
30744;BME280;17486;46.738;7.622;2023-05-25T02:02:45;95166.03;;;14.06;58.20
30744;BME280;17486;46.738;7.622;2023-05-25T02:05:12;95161.03;;;14.03;58.10
30744;BME280;17486;46.738;7.622;2023-05-25T02:07:38;95125.16;;;13.78;57.95
30744;BME280;17486;46.738;7.622;2023-05-25T02:10:03;95155.63;;;13.92;58.35
30744;BME280;17486;46.738;7.622;2023-05-25T02:12:29;95159.94;;;13.93;58.54
30744;BME280;17486;46.738;7.622;2023-05-25T02:14:55;95151.53;;;13.88;58.64
30744;BME280;17486;46.738;7.622;2023-05-25T02:17:20;95167.69;;;13.95;59.23
30744;BME280;17486;46.738;7.622;2023-05-25T02:19:45;95160.03;;;13.91;59.07
30744;BME280;17486;46.738;7.622;2023-05-25T02:22:13;95167.78;;;13.93;59.69
30744;BME280;17486;46.738;7.622;2023-05-25T02:24:38;95152.59;;;13.85;59.83
30744;BME280;17486;46.738;7.622;2023-05-25T02:27:05;95167.69;;;13.95;59.92
30744;BME280;17486;46.738;7.622;2023-05-25T02:29:30;95153.03;;;13.92;60.14
30744;BME280;17486;46.738;7.622;2023-05-25T02:31:56;95164.97;;;13.96;60.19
30744;BME280;17486;46.738;7.622;2023-05-25T02:34:21;95163.38;;;13.93;60.17
30744;BME280;17486;46.738;7.622;2023-05-25T02:36:46;95140.81;;;13.78;60.75
30744;BME280;17486;46.738;7.622;2023-05-25T02:39:12;95161.69;;;13.92;60.83
30744;BME280;17486;46.738;7.622;2023-05-25T02:41:38;95165.16;;;13.93;60.76
30744;BME280;17486;46.738;7.622;2023-05-25T02:44:03;95168.59;;;13.93;61.38
30744;BME280;17486;46.738;7.622;2023-05-25T02:46:29;95158.63;;;13.86;61.34
30744;BME280;17486;46.738;7.622;2023-05-25T02:48:55;95174.16;;;13.89;61.58
30744;BME280;17486;46.738;7.622;2023-05-25T02:51:20;95172.47;;;13.88;61.71
30744;BME280;17486;46.738;7.622;2023-05-25T02:53:45;95170.22;;;13.82;61.84
30744;BME280;17486;46.738;7.622;2023-05-25T02:56:11;95160.72;;;13.81;61.88
30744;BME280;17486;46.738;7.622;2023-05-25T02:58:36;95160.81;;;13.79;62.14
30744;BME280;17486;46.738;7.622;2023-05-25T03:01:02;95171.28;;;13.79;62.26
30744;BME280;17486;46.738;7.622;2023-05-25T03:03:30;95166.34;;;13.74;62.53
30744;BME280;17486;46.738;7.622;2023-05-25T03:05:55;95166.63;;;13.70;62.88
30744;BME280;17486;46.738;7.622;2023-05-25T03:08:23;95118.19;;;13.37;63.04
30744;BME280;17486;46.738;7.622;2023-05-25T03:10:49;95167.66;;;13.67;63.25
30744;BME280;17486;46.738;7.622;2023-05-25T03:13:15;95170.47;;;13.64;63.21
30744;BME280;17486;46.738;7.622;2023-05-25T03:15:40;95178.22;;;13.66;63.57
30744;BME280;17486;46.738;7.622;2023-05-25T03:18:06;95175.69;;;13.64;63.57
30744;BME280;17486;46.738;7.622;2023-05-25T03:20:31;95159.84;;;13.53;63.61
30744;BME280;17486;46.738;7.622;2023-05-25T03:22:57;95182.22;;;13.57;63.78
30744;BME280;17486;46.738;7.622;2023-05-25T03:25:23;95155.41;;;13.40;63.90
30744;BME280;17486;46.738;7.622;2023-05-25T03:27:52;95182.44;;;13.54;64.00
30744;BME280;17486;46.738;7.622;2023-05-25T03:30:19;95179.91;;;13.52;64.22
30744;BME280;17486;46.738;7.622;2023-05-25T03:32:44;95189.53;;;13.52;64.05
30744;BME280;17486;46.738;7.622;2023-05-25T03:35:09;95182.72;;;13.49;64.26
30744;BME280;17486;46.738;7.622;2023-05-25T03:37:35;95194.03;;;13.50;64.32
30744;BME280;17486;46.738;7.622;2023-05-25T03:40:00;95184.41;;;13.50;64.48
30744;BME280;17486;46.738;7.622;2023-05-25T03:42:27;95188.69;;;13.51;64.48
30744;BME280;17486;46.738;7.622;2023-05-25T03:44:52;95194.03;;;13.50;64.68
30744;BME280;17486;46.738;7.622;2023-05-25T03:47:18;95188.97;;;13.47;64.54
30744;BME280;17486;46.738;7.622;2023-05-25T03:49:43;95190.94;;;13.43;64.64
30744;BME280;17486;46.738;7.622;2023-05-25T03:52:08;95174.84;;;13.35;64.67
30744;BME280;17486;46.738;7.622;2023-05-25T03:54:34;95194.59;;;13.40;64.57
30744;BME280;17486;46.738;7.622;2023-05-25T03:56:59;95189.91;;;13.31;64.61
30744;BME280;17486;46.738;7.622;2023-05-25T03:59:26;95194.94;;;13.34;64.52
30744;BME280;17486;46.738;7.622;2023-05-25T04:01:51;95179.06;;;13.23;65.01
30744;BME280;17486;46.738;7.622;2023-05-25T04:04:17;95179.47;;;13.17;65.55
30744;BME280;17486;46.738;7.622;2023-05-25T04:06:42;95175.53;;;13.09;65.62
30744;BME280;17486;46.738;7.622;2023-05-25T04:09:10;95201.84;;;13.21;65.70
30744;BME280;17486;46.738;7.622;2023-05-25T04:11:35;95206.13;;;13.22;65.69
30744;BME280;17486;46.738;7.622;2023-05-25T04:14:01;95216.59;;;13.22;65.46
30744;BME280;17486;46.738;7.622;2023-05-25T04:16:27;95220.28;;;13.18;65.23
30744;BME280;17486;46.738;7.622;2023-05-25T04:18:52;95220.47;;;13.15;65.66
30744;BME280;17486;46.738;7.622;2023-05-25T04:21:18;95221.16;;;13.18;65.58
30744;BME280;17486;46.738;7.622;2023-05-25T04:23:43;95221.03;;;13.20;65.56
30744;BME280;17486;46.738;7.622;2023-05-25T04:26:09;95216.84;;;13.17;65.88
30744;BME280;17486;46.738;7.622;2023-05-25T04:28:35;95229.16;;;13.30;65.67
30744;BME280;17486;46.738;7.622;2023-05-25T04:31:01;95232.31;;;13.35;65.76
30744;BME280;17486;46.738;7.622;2023-05-25T04:33:28;95210.41;;;13.23;65.45
30744;BME280;17486;46.738;7.622;2023-05-25T04:35:54;95227.88;;;13.37;65.69
30744;BME280;17486;46.738;7.622;2023-05-25T04:38:23;95232.84;;;13.41;65.90
30744;BME280;17486;46.738;7.622;2023-05-25T04:40:49;95226.50;;;13.46;65.84
30744;BME280;17486;46.738;7.622;2023-05-25T04:43:16;95231.63;;;13.47;65.93
30744;BME280;17486;46.738;7.622;2023-05-25T04:45:45;95229.19;;;13.44;65.88
30744;BME280;17486;46.738;7.622;2023-05-25T04:48:11;95222.47;;;13.40;65.94
30744;BME280;17486;46.738;7.622;2023-05-25T04:50:38;95227.53;;;13.43;66.06
30744;BME280;17486;46.738;7.622;2023-05-25T04:53:04;95251.31;;;13.53;65.88
30744;BME280;17486;46.738;7.622;2023-05-25T04:55:30;95225.94;;;13.40;65.78
30744;BME280;17486;46.738;7.622;2023-05-25T04:57:55;95253.91;;;13.53;66.33
30744;BME280;17486;46.738;7.622;2023-05-25T05:00:21;95252.16;;;13.53;66.29
30744;BME280;17486;46.738;7.622;2023-05-25T05:02:46;95251.13;;;13.56;66.13
30744;BME280;17486;46.738;7.622;2023-05-25T05:05:13;95258.97;;;13.56;66.04
30744;BME280;17486;46.738;7.622;2023-05-25T05:07:38;95253.66;;;13.57;66.07
30744;BME280;17486;46.738;7.622;2023-05-25T05:10:04;95260.34;;;13.62;66.13
30744;BME280;17486;46.738;7.622;2023-05-25T05:12:30;95260.25;;;13.63;65.95
30744;BME280;17486;46.738;7.622;2023-05-25T05:14:56;95245.97;;;13.54;65.94
30744;BME280;17486;46.738;7.622;2023-05-25T05:17:21;95260.81;;;13.68;65.78
30744;BME280;17486;46.738;7.622;2023-05-25T05:19:48;95264.00;;;13.73;65.66
30744;BME280;17486;46.738;7.622;2023-05-25T05:22:13;95261.28;;;13.75;65.73
30744;BME280;17486;46.738;7.622;2023-05-25T05:24:40;95273.13;;;13.81;65.67
30744;BME280;17486;46.738;7.622;2023-05-25T05:27:06;95275.44;;;13.85;65.71
30744;BME280;17486;46.738;7.622;2023-05-25T05:29:31;95276.28;;;13.86;65.82
30744;BME280;17486;46.738;7.622;2023-05-25T05:31:58;95247.38;;;13.74;65.48
30744;BME280;17486;46.738;7.622;2023-05-25T05:34:24;95280.22;;;13.93;65.12
30744;BME280;17486;46.738;7.622;2023-05-25T05:36:50;95275.69;;;13.95;65.58
30744;BME280;17486;46.738;7.622;2023-05-25T05:39:16;95276.94;;;13.89;65.88
30744;BME280;17486;46.738;7.622;2023-05-25T05:41:41;95285.44;;;13.93;65.59
30744;BME280;17486;46.738;7.622;2023-05-25T05:44:10;95257.19;;;13.71;65.75
30744;BME280;17486;46.738;7.622;2023-05-25T05:46:36;95268.84;;;13.80;65.66
30744;BME280;17486;46.738;7.622;2023-05-25T05:49:02;95275.56;;;13.84;65.67
30744;BME280;17486;46.738;7.622;2023-05-25T05:51:28;95268.84;;;13.80;65.56
30744;BME280;17486;46.738;7.622;2023-05-25T05:53:53;95286.56;;;13.89;65.32
30744;BME280;17486;46.738;7.622;2023-05-25T05:56:18;95293.19;;;13.95;65.40
30744;BME280;17486;46.738;7.622;2023-05-25T05:58:44;95302.59;;;13.97;65.67
30744;BME280;17486;46.738;7.622;2023-05-25T06:01:09;95290.56;;;13.95;65.40
30744;BME280;17486;46.738;7.622;2023-05-25T06:03:35;95296.63;;;13.95;65.27
30744;BME280;17486;46.738;7.622;2023-05-25T06:06:02;95295.78;;;13.95;65.51
30744;BME280;17486;46.738;7.622;2023-05-25T06:08:27;95300.91;;;13.96;65.74
30744;BME280;17486;46.738;7.622;2023-05-25T06:10:53;95297.47;;;13.96;65.49
30744;BME280;17486;46.738;7.622;2023-05-25T06:13:20;95296.72;;;13.93;65.31
30744;BME280;17486;46.738;7.622;2023-05-25T06:15:45;95295.69;;;13.96;65.43
30744;BME280;17486;46.738;7.622;2023-05-25T06:18:11;95297.19;;;14.00;65.37
30744;BME280;17486;46.738;7.622;2023-05-25T06:20:36;95280.00;;;13.96;65.24
30744;BME280;17486;46.738;7.622;2023-05-25T06:23:01;95294.94;;;14.08;65.47
30744;BME280;17486;46.738;7.622;2023-05-25T06:25:27;95278.88;;;14.00;65.00
30744;BME280;17486;46.738;7.622;2023-05-25T06:27:52;95283.44;;;14.11;65.27
30744;BME280;17486;46.738;7.622;2023-05-25T06:30:17;95291.75;;;14.18;65.02
30744;BME280;17486;46.738;7.622;2023-05-25T06:32:43;95296.06;;;14.19;64.44
30744;BME280;17486;46.738;7.622;2023-05-25T06:35:08;95303.69;;;14.22;64.46
30744;BME280;17486;46.738;7.622;2023-05-25T06:37:36;95300.03;;;14.24;64.57
30744;BME280;17486;46.738;7.622;2023-05-25T06:40:03;95297.31;;;14.26;64.48
30744;BME280;17486;46.738;7.622;2023-05-25T06:42:34;95297.88;;;14.31;64.64
30744;BME280;17486;46.738;7.622;2023-05-25T06:45:00;95305.72;;;14.31;64.46
30744;BME280;17486;46.738;7.622;2023-05-25T06:47:25;95303.00;;;14.33;64.37
30744;BME280;17486;46.738;7.622;2023-05-25T06:49:50;95300.50;;;14.31;64.18
30744;BME280;17486;46.738;7.622;2023-05-25T06:52:16;95297.88;;;14.31;64.13
30744;BME280;17486;46.738;7.622;2023-05-25T06:54:41;95310.75;;;14.34;63.66
30744;BME280;17486;46.738;7.622;2023-05-25T06:57:06;95315.16;;;14.34;63.82
30744;BME280;17486;46.738;7.622;2023-05-25T06:59:32;95316.53;;;14.39;64.56
30744;BME280;17486;46.738;7.622;2023-05-25T07:01:58;95295.16;;;14.33;64.23
30744;BME280;17486;46.738;7.622;2023-05-25T07:04:24;95306.44;;;14.48;63.89
30744;BME280;17486;46.738;7.622;2023-05-25T07:06:49;95309.59;;;14.53;64.15
30744;BME280;17486;46.738;7.622;2023-05-25T07:09:16;95309.38;;;14.56;64.17
30744;BME280;17486;46.738;7.622;2023-05-25T07:11:41;95311.06;;;14.57;63.65
30744;BME280;17486;46.738;7.622;2023-05-25T07:14:07;95314.41;;;14.59;63.17
30744;BME280;17486;46.738;7.622;2023-05-25T07:16:32;95321.22;;;14.62;63.54
30744;BME280;17486;46.738;7.622;2023-05-25T07:18:58;95325.47;;;14.64;63.96
30744;BME280;17486;46.738;7.622;2023-05-25T07:21:23;95327.69;;;14.70;63.93
30744;BME280;17486;46.738;7.622;2023-05-25T07:23:49;95332.72;;;14.73;63.71
30744;BME280;17486;46.738;7.622;2023-05-25T07:26:14;95331.78;;;14.74;63.77
30744;BME280;17486;46.738;7.622;2023-05-25T07:28:40;95326.00;;;14.69;63.74
30744;BME280;17486;46.738;7.622;2023-05-25T07:31:06;95344.16;;;14.85;63.62
30744;BME280;17486;46.738;7.622;2023-05-25T07:33:32;95341.38;;;14.88;63.86
30744;BME280;17486;46.738;7.622;2023-05-25T07:35:57;95350.81;;;14.91;63.96
30744;BME280;17486;46.738;7.622;2023-05-25T07:38:23;95345.75;;;14.88;63.66
30744;BME280;17486;46.738;7.622;2023-05-25T07:40:48;95351.53;;;14.93;63.58
30744;BME280;17486;46.738;7.622;2023-05-25T07:43:14;95353.31;;;14.92;63.14
30744;BME280;17486;46.738;7.622;2023-05-25T07:45:39;95360.03;;;14.97;62.96
30744;BME280;17486;46.738;7.622;2023-05-25T07:48:05;95366.09;;;14.97;63.00
30744;BME280;17486;46.738;7.622;2023-05-25T07:50:31;95359.00;;;14.99;63.08
30744;BME280;17486;46.738;7.622;2023-05-25T07:52:57;95360.84;;;14.97;63.12
30744;BME280;17486;46.738;7.622;2023-05-25T07:55:25;95369.25;;;15.02;62.52
30744;BME280;17486;46.738;7.622;2023-05-25T07:57:50;95366.84;;;14.99;61.51
30744;BME280;17486;46.738;7.622;2023-05-25T08:00:16;95377.66;;;15.07;61.22
30744;BME280;17486;46.738;7.622;2023-05-25T08:02:42;95379.25;;;15.10;60.86
30744;BME280;17486;46.738;7.622;2023-05-25T08:05:08;95380.00;;;15.12;61.26
30744;BME280;17486;46.738;7.622;2023-05-25T08:07:34;95384.19;;;15.15;60.96
30744;BME280;17486;46.738;7.622;2023-05-25T08:10:00;95391.13;;;15.16;61.46
30744;BME280;17486;46.738;7.622;2023-05-25T08:12:26;95389.44;;;15.15;60.96
30744;BME280;17486;46.738;7.622;2023-05-25T08:14:51;95384.38;;;15.12;61.45
30744;BME280;17486;46.738;7.622;2023-05-25T08:17:18;95391.13;;;15.16;60.87
30744;BME280;17486;46.738;7.622;2023-05-25T08:19:44;95399.31;;;15.24;60.81
30744;BME280;17486;46.738;7.622;2023-05-25T08:22:09;95398.16;;;15.28;60.77
30744;BME280;17486;46.738;7.622;2023-05-25T08:24:35;95405.91;;;15.30;60.62
30744;BME280;17486;46.738;7.622;2023-05-25T08:27:01;95392.63;;;15.33;60.50
30744;BME280;17486;46.738;7.622;2023-05-25T08:29:26;95403.81;;;15.35;60.62
30744;BME280;17486;46.738;7.622;2023-05-25T08:31:52;95403.72;;;15.36;60.37
30744;BME280;17486;46.738;7.622;2023-05-25T08:34:18;95403.00;;;15.34;59.86
30744;BME280;17486;46.738;7.622;2023-05-25T08:36:43;95418.50;;;15.37;59.89
30744;BME280;17486;46.738;7.622;2023-05-25T08:39:09;95410.50;;;15.26;60.23
30744;BME280;17486;46.738;7.622;2023-05-25T08:41:36;95415.16;;;15.35;59.65
30744;BME280;17486;46.738;7.622;2023-05-25T08:44:05;95411.25;;;15.28;60.12
30744;BME280;17486;46.738;7.622;2023-05-25T08:46:32;95421.34;;;15.34;60.01
30744;BME280;17486;46.738;7.622;2023-05-25T08:49:03;95420.16;;;15.25;60.25
30744;BME280;17486;46.738;7.622;2023-05-25T08:51:34;95429.38;;;15.31;59.59
30744;BME280;17486;46.738;7.622;2023-05-25T08:54:08;95420.06;;;15.27;60.05
30744;BME280;17486;46.738;7.622;2023-05-25T08:56:48;95429.09;;;15.36;59.55
30744;BME280;17486;46.738;7.622;2023-05-25T08:59:25;95445.66;;;15.36;59.44
30744;BME280;17486;46.738;7.622;2023-05-25T09:01:55;95452.69;;;15.36;59.35
30744;BME280;17486;46.738;7.622;2023-05-25T09:04:22;95453.63;;;15.35;58.97
30744;BME280;17486;46.738;7.622;2023-05-25T09:06:48;95449.41;;;15.32;59.22
30744;BME280;17486;46.738;7.622;2023-05-25T09:09:15;95441.94;;;15.26;59.27
30744;BME280;17486;46.738;7.622;2023-05-25T09:11:42;95423.28;;;15.18;59.70
30744;BME280;17486;46.738;7.622;2023-05-25T09:14:08;95460.06;;;15.44;59.81
30744;BME280;17486;46.738;7.622;2023-05-25T09:16:36;95464.78;;;15.51;59.13
30744;BME280;17486;46.738;7.622;2023-05-25T09:19:02;95471.13;;;15.62;59.16
30744;BME280;17486;46.738;7.622;2023-05-25T09:21:27;95468.16;;;15.66;58.78
30744;BME280;17486;46.738;7.622;2023-05-25T09:23:52;95476.34;;;15.74;59.71
30744;BME280;17486;46.738;7.622;2023-05-25T09:26:18;95474.28;;;15.80;61.18
30744;BME280;17486;46.738;7.622;2023-05-25T09:28:47;95485.03;;;15.89;59.76
30744;BME280;17486;46.738;7.622;2023-05-25T09:31:15;95487.34;;;15.94;59.41
30744;BME280;17486;46.738;7.622;2023-05-25T09:33:41;95480.09;;;15.98;59.27
30744;BME280;17486;46.738;7.622;2023-05-25T09:36:07;95465.09;;;15.87;58.00
30744;BME280;17486;46.738;7.622;2023-05-25T09:38:33;95479.47;;;15.94;57.39
30744;BME280;17486;46.738;7.622;2023-05-25T09:40:58;95451.81;;;15.75;57.26
30744;BME280;17486;46.738;7.622;2023-05-25T09:43:25;95471.06;;;15.89;57.12
30744;BME280;17486;46.738;7.622;2023-05-25T09:45:51;95480.31;;;15.95;56.83
30744;BME280;17486;46.738;7.622;2023-05-25T09:48:17;95477.38;;;15.99;56.93
30744;BME280;17486;46.738;7.622;2023-05-25T09:50:43;95487.56;;;16.04;57.36
30744;BME280;17486;46.738;7.622;2023-05-25T09:53:08;95474.44;;;16.04;57.75
30744;BME280;17486;46.738;7.622;2023-05-25T09:55:35;95492.50;;;16.21;57.36
30744;BME280;17486;46.738;7.622;2023-05-25T09:58:01;95500.59;;;16.31;57.01
30744;BME280;17486;46.738;7.622;2023-05-25T10:00:26;95499.75;;;16.44;57.13
30744;BME280;17486;46.738;7.622;2023-05-25T10:02:52;95497.22;;;16.55;56.38
30744;BME280;17486;46.738;7.622;2023-05-25T10:05:17;95501.41;;;16.70;56.37
30744;BME280;17486;46.738;7.622;2023-05-25T10:07:44;95503.69;;;16.88;56.11
30744;BME280;17486;46.738;7.622;2023-05-25T10:10:13;95510.41;;;17.05;55.34
30744;BME280;17486;46.738;7.622;2023-05-25T10:12:41;95507.63;;;17.19;54.43
30744;BME280;17486;46.738;7.622;2023-05-25T10:15:08;95504.59;;;17.37;54.50
30744;BME280;17486;46.738;7.622;2023-05-25T10:17:35;95484.63;;;17.34;54.14
30744;BME280;17486;46.738;7.622;2023-05-25T10:20:06;95500.53;;;17.57;53.91
30744;BME280;17486;46.738;7.622;2023-05-25T10:22:43;95504.25;;;17.66;53.82
30744;BME280;17486;46.738;7.622;2023-05-25T10:25:24;95493.34;;;17.59;54.07
30744;BME280;17486;46.738;7.622;2023-05-25T10:27:58;95501.94;;;17.74;54.42
30744;BME280;17486;46.738;7.622;2023-05-25T10:30:26;95506.25;;;17.86;53.45
30744;BME280;17486;46.738;7.622;2023-05-25T10:32:53;95512.97;;;17.90;53.50
30744;BME280;17486;46.738;7.622;2023-05-25T10:35:19;95513.94;;;17.89;53.36
30744;BME280;17486;46.738;7.622;2023-05-25T10:37:45;95516.13;;;17.96;53.08
30744;BME280;17486;46.738;7.622;2023-05-25T10:40:12;95496.59;;;17.87;53.16
30744;BME280;17486;46.738;7.622;2023-05-25T10:42:38;95506.59;;;18.06;53.02
30744;BME280;17486;46.738;7.622;2023-05-25T10:45:06;95516.09;;;18.20;53.20
30744;BME280;17486;46.738;7.622;2023-05-25T10:47:34;95483.53;;;18.10;52.81
30744;BME280;17486;46.738;7.622;2023-05-25T10:50:01;95504.63;;;18.21;52.64
30744;BME280;17486;46.738;7.622;2023-05-25T10:52:28;95521.63;;;18.39;52.51
30744;BME280;17486;46.738;7.622;2023-05-25T10:55:04;95523.56;;;18.49;52.09
30744;BME280;17486;46.738;7.622;2023-05-25T10:57:30;95535.06;;;18.59;52.05
30744;BME280;17486;46.738;7.622;2023-05-25T11:00:06;95537.47;;;18.73;52.71
30744;BME280;17486;46.738;7.622;2023-05-25T11:02:52;95523.22;;;18.76;51.92
30744;BME280;17486;46.738;7.622;2023-05-25T11:07:57;95549.34;;;19.02;51.19
30744;BME280;17486;46.738;7.622;2023-05-25T11:21:39;95545.47;;;19.40;49.76
30744;BME280;17486;46.738;7.622;2023-05-25T11:24:16;95522.91;;;19.47;49.74
30744;BME280;17486;46.738;7.622;2023-05-25T11:26:56;95536.66;;;19.62;49.80
30744;BME280;17486;46.738;7.622;2023-05-25T11:29:22;95530.19;;;19.66;49.43
30744;BME280;17486;46.738;7.622;2023-05-25T11:31:53;95543.09;;;19.81;49.13
30744;BME280;17486;46.738;7.622;2023-05-25T11:34:23;95541.50;;;19.90;49.38
30744;BME280;17486;46.738;7.622;2023-05-25T11:36:57;95551.84;;;20.14;48.37
30744;BME280;17486;46.738;7.622;2023-05-25T11:39:26;95544.25;;;20.20;48.18
30744;BME280;17486;46.738;7.622;2023-05-25T11:41:57;95546.00;;;20.31;48.47
30744;BME280;17486;46.738;7.622;2023-05-25T11:44:34;95548.59;;;20.43;47.56
30744;BME280;17486;46.738;7.622;2023-05-25T11:47:03;95555.56;;;20.44;48.02
30744;BME280;17486;46.738;7.622;2023-05-25T11:49:30;95564.09;;;20.57;48.07
30744;BME280;17486;46.738;7.622;2023-05-25T11:51:56;95534.72;;;20.50;47.27
30744;BME280;17486;46.738;7.622;2023-05-25T11:54:28;95548.38;;;20.77;47.29
30744;BME280;17486;46.738;7.622;2023-05-25T11:56:54;95553.06;;;20.94;47.01
30744;BME280;17486;46.738;7.622;2023-05-25T11:59:23;95544.47;;;21.02;46.14
30744;BME280;17486;46.738;7.622;2023-05-25T12:01:59;95521.03;;;20.97;45.99
30744;BME280;17486;46.738;7.622;2023-05-25T12:04:25;95548.72;;;21.24;46.12
30744;BME280;17486;46.738;7.622;2023-05-25T12:06:51;95536.19;;;21.26;45.43
30744;BME280;17486;46.738;7.622;2023-05-25T12:09:20;95536.97;;;21.17;45.45
30744;BME280;17486;46.738;7.622;2023-05-25T12:11:47;95528.50;;;21.13;45.62
30744;BME280;17486;46.738;7.622;2023-05-25T12:14:13;95538.28;;;21.32;45.70
30744;BME280;17486;46.738;7.622;2023-05-25T12:16:38;95540.97;;;21.52;45.49
30744;BME280;17486;46.738;7.622;2023-05-25T12:19:06;95523.06;;;21.56;45.10
30744;BME280;17486;46.738;7.622;2023-05-25T12:21:32;95542.19;;;21.79;44.32
30744;BME280;17486;46.738;7.622;2023-05-25T12:23:58;95536.88;;;21.89;44.51
30744;BME280;17486;46.738;7.622;2023-05-25T12:26:24;95520.72;;;21.72;44.21
30744;BME280;17486;46.738;7.622;2023-05-25T12:29:03;95550.25;;;21.87;44.62
30744;BME280;17486;46.738;7.622;2023-05-25T12:31:31;95534.94;;;21.91;43.64
30744;BME280;17486;46.738;7.622;2023-05-25T12:34:14;95531.16;;;21.93;43.18
30744;BME280;17486;46.738;7.622;2023-05-25T12:36:45;95533.25;;;21.99;43.50
30744;BME280;17486;46.738;7.622;2023-05-25T12:39:13;95543.13;;;22.07;43.52
30744;BME280;17486;46.738;7.622;2023-05-25T12:41:57;95531.28;;;22.11;43.35
30744;BME280;17486;46.738;7.622;2023-05-25T12:44:27;95534.78;;;22.12;43.43
30744;BME280;17486;46.738;7.622;2023-05-25T12:46:56;95522.94;;;21.96;42.94
30744;BME280;17486;46.738;7.622;2023-05-25T12:49:34;95521.13;;;21.87;42.83
30744;BME280;17486;46.738;7.622;2023-05-25T12:52:03;95518.63;;;21.85;43.23
30744;BME280;17486;46.738;7.622;2023-05-25T12:57:05;95534.34;;;22.36;42.76
30744;BME280;17486;46.738;7.622;2023-05-25T12:59:32;95510.22;;;22.29;42.39
30744;BME280;17486;46.738;7.622;2023-05-25T13:01:58;95538.09;;;22.63;41.84
30744;BME280;17486;46.738;7.622;2023-05-25T13:04:25;95529.13;;;22.74;41.53
30744;BME280;17486;46.738;7.622;2023-05-25T13:06:51;95527.84;;;22.78;41.63
30744;BME280;17486;46.738;7.622;2023-05-25T13:09:17;95529.53;;;22.79;41.43
30744;BME280;17486;46.738;7.622;2023-05-25T13:11:42;95525.59;;;22.83;41.60
30744;BME280;17486;46.738;7.622;2023-05-25T13:14:07;95531.72;;;22.93;41.76
30744;BME280;17486;46.738;7.622;2023-05-25T13:16:33;95529.44;;;22.98;41.72